Time;durP1;ratioP1;P1;durP2;ratioP2;P2;SDS_P1;SDS_P2;PMS_P1;PMS_P2;Temp;Humidity;BMP_temperature;BMP_pressure;BME280_temperature;BME280_humidity;BME280_pressure;Samples;Min_cycle;Max_cycle;Signal;HPM_P1;HPM_P2
2021/01/04 00:01:33;;;;;;;32.28;14.18;;;;;;;0.59;89.78;100944.16;1666915;85;21237;-79
2021/01/04 00:04:28;;;;;;;26.95;14.25;;;;;;;0.59;89.75;100947.56;1647050;85;21830;-78
2021/01/04 00:07:27;;;;;;;29.02;14.10;;;;;;;0.57;89.76;100950.47;1659177;85;21198;-79
2021/01/04 00:10:21;;;;;;;24.55;14.18;;;;;;;0.58;89.77;100946.25;1674993;84;21152;-79
2021/01/04 00:12:57;;;;;;;22.48;13.55;;;;;;;0.57;89.75;100943.25;1675510;85;21137;-78
2021/01/04 00:15:33;;;;;;;;;;;;;;;0.56;89.72;100947.48;1677654;84;21572;-79
2021/01/04 00:18:38;;;;;;;23.27;12.58;;;;;;;0.55;89.70;100941.94;1673433;84;20307;-79
2021/01/04 00:21:28;;;;;;;22.03;11.77;;;;;;;0.52;89.68;100941.84;1673683;84;21205;-78
2021/01/04 00:24:22;;;;;;;20.08;11.50;;;;;;;0.49;89.71;100944.33;1649567;84;21232;-80
2021/01/04 00:27:09;;;;;;;22.45;12.35;;;;;;;0.49;89.69;100944.73;1633075;85;21224;-79
2021/01/04 00:29:36;;;;;;;22.40;12.85;;;;;;;0.48;89.71;100941.33;1673822;85;22336;-79
2021/01/04 00:32:08;;;;;;;;;;;;;;;0.47;89.71;100941.28;1676265;84;21258;-79
2021/01/04 00:34:49;;;;;;;18.77;10.72;;;;;;;0.45;89.73;100946.33;1669470;85;20703;-79
2021/01/04 00:37:29;;;;;;;19.30;11.83;;;;;;;0.45;89.71;100947.59;1672988;84;21200;-79
2021/01/04 00:40:28;;;;;;;17.30;11.35;;;;;;;0.44;89.71;100942.47;1672757;85;21201;-79
2021/01/04 00:42:55;;;;;;;22.90;11.88;;;;;;;0.44;89.73;100943.33;1672172;84;22310;-78
2021/01/04 00:45:44;;;;;;;13.65;9.63;;;;;;;0.44;89.74;100942.05;1671747;85;21201;-78
2021/01/04 00:48:33;;;;;;;22.00;12.68;;;;;;;0.45;89.77;100935.28;1670887;85;22261;-79
2021/01/04 00:51:40;;;;;;;20.23;12.07;;;;;;;0.46;89.79;100940.42;1672038;85;21205;-79
2021/01/04 00:54:39;;;;;;;16.10;10.30;;;;;;;0.48;89.76;100948.09;1673885;84;21497;-80
2021/01/04 00:57:32;;;;;;;24.90;13.00;;;;;;;0.47;89.78;100948.91;1670661;85;21311;-78
2021/01/04 01:00:36;;;;;;;21.27;12.78;;;;;;;0.47;89.78;100947.23;1657599;85;21209;-79
2021/01/04 01:03:38;;;;;;;25.05;13.53;;;;;;;0.48;89.79;100946.42;1665179;85;21206;-79
2021/01/04 01:06:15;;;;;;;20.92;11.33;;;;;;;0.49;89.76;100945.60;1670714;84;21475;-79
2021/01/04 01:08:41;;;;;;;21.85;12.63;;;;;;;0.49;89.77;100940.52;1671537;84;21174;-78
2021/01/04 01:11:16;;;;;;;23.27;12.18;;;;;;;0.49;89.78;100946.01;1686315;84;21287;-80
2021/01/04 01:14:22;;;;;;;22.65;12.82;;;;;;;0.49;89.79;100944.33;1675837;83;21220;-79
2021/01/04 01:17:12;;;;;;;21.97;12.35;;;;;;;0.51;89.80;100952.01;1601012;88;21269;-79
2021/01/04 01:19:48;;;;;;;25.68;13.53;;;;;;;0.51;89.80;100946.51;1614986;87;21249;-79
2021/01/04 01:22:24;;;;;;;;;;;;;;;0.52;89.81;100943.55;1597825;87;21339;-78
2021/01/04 01:24:52;;;;;;;21.85;11.38;;;;;;;0.53;89.80;100948.66;1610695;88;21220;-79
2021/01/04 01:28:09;;;;;;;20.77;12.10;;;;;;;0.53;89.80;100940.16;1587715;87;21268;-79
2021/01/04 01:30:56;;;;;;;19.40;12.50;;;;;;;0.53;89.79;100943.57;1616589;88;21262;-79
2021/01/04 01:33:38;;;;;;;20.45;12.63;;;;;;;0.54;89.78;100946.56;1614712;87;21285;-77
2021/01/04 01:36:54;;;;;;;22.13;11.90;;;;;;;0.54;89.80;100947.84;1598995;87;21271;-79
2021/01/04 01:39:47;;;;;;;19.25;11.65;;;;;;;0.54;89.80;100947.84;1530651;92;21288;-79
2021/01/04 01:42:52;;;;;;;19.82;12.40;;;;;;;0.54;89.78;100939.34;1548454;90;21823;-79
2021/01/04 01:45:42;;;;;;;24.32;12.65;;;;;;;0.54;89.80;100940.62;1613840;87;21277;-79
2021/01/04 01:48:51;;;;;;;25.60;12.37;;;;;;;0.55;89.80;100940.66;1652057;84;21179;-79
2021/01/04 01:51:49;;;;;;;22.25;11.45;;;;;;;0.56;89.81;100942.80;1671444;83;21200;-79
2021/01/04 01:54:38;;;;;;;16.67;9.10;;;;;;;0.56;89.78;100944.07;1686422;84;21282;-78
2021/01/04 01:57:39;;;;;;;17.87;11.53;;;;;;;0.55;89.78;100945.75;1686020;83;21254;-77
2021/01/04 02:00:18;;;;;;;16.00;10.90;;;;;;;0.55;89.78;100944.48;1678818;84;21217;-79
2021/01/04 02:03:01;;;;;;;21.55;12.55;;;;;;;0.56;89.78;100950.43;1686825;84;21221;-78
2021/01/04 02:05:46;;;;;;;17.55;10.88;;;;;;;0.55;89.77;100944.89;1683363;83;21184;-79
2021/01/04 02:08:17;;;;;;;16.35;10.70;;;;;;;0.56;89.78;100944.07;1678651;84;21246;-78
2021/01/04 02:10:49;;;;;;;16.90;11.15;;;;;;;0.57;89.81;100939.44;1665375;85;21253;-79
2021/01/04 02:13:23;;;;;;;15.98;10.53;;;;;;;0.58;89.81;100943.70;1667184;84;21182;-79
2021/01/04 02:16:12;;;;;;;16.20;10.35;;;;;;;0.58;89.80;100935.66;1657040;85;21250;-78
2021/01/04 02:19:15;;;;;;;13.72;10.20;;;;;;;0.58;89.77;100937.34;1666924;84;21193;-79
2021/01/04 02:22:23;;;;;;;14.13;9.60;;;;;;;0.57;89.75;100938.16;1658534;85;21230;-79
2021/01/04 02:24:49;;;;;;;15.25;9.18;;;;;;;0.57;89.76;100942.84;1667484;84;21202;-79
2021/01/04 02:27:21;;;;;;;16.05;10.15;;;;;;;0.56;89.76;100949.16;1667546;85;21190;-78
2021/01/04 02:29:47;;;;;;;13.32;9.50;;;;;;;0.56;89.79;100950.02;1652037;84;21217;-78
2021/01/04 02:32:13;;;;;;;16.50;9.93;;;;;;;0.58;89.81;100948.39;1662666;85;21452;-78
2021/01/04 02:34:49;;;;;;;17.05;10.30;;;;;;;0.58;89.79;100947.52;1657880;86;22347;-80
2021/01/04 02:37:18;;;;;;;14.25;9.88;;;;;;;0.58;89.81;100950.06;1661911;84;21237;-78
2021/01/04 02:39:57;;;;;;;12.37;9.03;;;;;;;0.58;89.80;100945.84;1662846;86;21229;-79
2021/01/04 02:42:31;;;;;;;12.33;8.45;;;;;;;0.59;89.80;100949.25;1656906;85;21256;-80
2021/01/04 02:45:03;;;;;;;10.63;8.80;;;;;;;0.61;89.81;100953.56;1662712;86;21197;-79
2021/01/04 02:47:47;;;;;;;14.13;10.13;;;;;;;0.61;89.78;100947.61;1663034;86;21214;-79
2021/01/04 02:50:25;;;;;;;11.75;8.90;;;;;;;0.59;89.78;100948.84;1661872;86;21234;-79
2021/01/04 02:53:16;;;;;;;14.28;10.08;;;;;;;0.60;89.77;100948.43;1661631;84;21547;-80
2021/01/04 02:56:10;;;;;;;13.15;8.33;;;;;;;0.60;89.78;100944.20;1659024;86;21803;-79
2021/01/04 02:58:57;;;;;;;14.10;9.95;;;;;;;0.58;89.81;100938.62;1661525;84;21218;-80
2021/01/04 03:01:32;;;;;;;14.75;10.08;;;;;;;0.62;89.81;100940.44;1610182;86;21567;-79
2021/01/04 03:03:58;;;;;;;15.23;9.28;;;;;;;0.58;89.82;100936.94;1660230;85;21214;-79
2021/01/04 03:06:47;;;;;;;11.63;8.43;;;;;;;0.63;89.83;100944.30;1661138;84;21205;-79
2021/01/04 03:09:32;;;;;;;13.50;9.28;;;;;;;0.64;89.82;100940.07;1636154;85;21242;-80
2021/01/04 03:12:00;;;;;;;11.90;9.00;;;;;;;0.63;89.80;100948.52;1698195;84;21198;-79
2021/01/04 03:15:21;;;;;;;14.25;9.90;;;;;;;0.62;89.79;100950.61;1701841;82;21207;-81
2021/01/04 03:18:17;;;;;;;15.85;9.75;;;;;;;0.64;89.81;100952.80;1609172;88;21251;-79
2021/01/04 03:20:53;;;;;;;13.20;9.23;;;;;;;0.64;89.81;100954.93;1691443;84;28985;-79
2021/01/04 03:23:14;;;;;;;12.33;8.80;;;;;;;0.64;89.83;100958.75;1696243;82;21190;-78
2021/01/04 03:25:48;;;;;;;13.15;9.33;;;;;;;0.66;89.83;100957.52;1699187;84;21491;-78
2021/01/04 03:28:22;;;;;;;14.10;9.90;;;;;;;0.66;89.80;100958.80;1655782;84;21318;-80
2021/01/04 03:30:49;;;;;;;12.37;9.85;;;;;;;0.66;89.80;100956.25;1699272;82;21200;-79
2021/01/04 03:33:16;;;;;;;14.70;9.33;;;;;;;0.67;89.83;100960.52;1693783;84;21601;-79
2021/01/04 03:35:50;;;;;;;15.18;9.75;;;;;;;0.67;89.80;100966.88;1699184;82;21612;-79
2021/01/04 03:38:17;;;;;;;11.95;9.05;;;;;;;0.66;89.79;100962.61;1697994;82;21163;-79
2021/01/04 03:41:02;;;;;;;15.15;9.63;;;;;;;0.66;89.82;100955.84;1679323;84;21514;-79
2021/01/04 03:43:29;;;;;;;12.50;9.28;;;;;;;0.66;89.78;100963.47;1684198;83;21215;-79
2021/01/04 03:45:56;;;;;;;16.02;9.85;;;;;;;0.66;89.82;100955.84;1699892;82;21830;-80
2021/01/04 03:48:22;;;;;;;14.93;9.33;;;;;;;0.67;89.81;100957.97;1698650;84;21235;-79
2021/01/04 03:50:54;;;;;;;13.38;8.83;;;;;;;0.69;89.82;100958.02;1697117;84;21861;-80
2021/01/04 03:53:21;;;;;;;13.40;9.30;;;;;;;0.68;89.81;100956.30;1698853;84;21803;-78
2021/01/04 03:55:47;;;;;;;10.48;8.78;;;;;;;0.68;89.82;100958.84;1699350;83;21660;-78
2021/01/04 03:58:14;;;;;;;21.68;12.40;;;;;;;0.68;89.83;100960.11;1699099;84;21483;-79
2021/01/04 04:00:47;;;;;;;14.13;10.20;;;;;;;0.68;89.81;100962.25;1699772;84;21190;-79
2021/01/04 04:03:21;;;;;;;16.75;9.95;;;;;;;0.69;89.83;100960.56;1699561;82;22265;-79
2021/01/04 04:05:47;;;;;;;14.80;9.85;;;;;;;0.66;89.83;100958.80;1699802;84;21574;-79
2021/01/04 04:08:13;;;;;;;15.53;10.72;;;;;;;0.70;89.82;100959.34;1699782;83;21721;-79
2021/01/04 04:10:39;;;;;;;15.80;10.43;;;;;;;0.71;89.82;100957.66;1697746;83;20926;-79
2021/01/04 04:13:05;;;;;;;18.03;11.90;;;;;;;0.70;89.80;100963.56;1719795;82;22540;-78
2021/01/04 04:15:31;;;;;;;14.00;9.80;;;;;;;0.70;89.82;100957.20;1723240;81;21039;-78
2021/01/04 04:17:57;;;;;;;10.05;7.62;;;;;;;0.70;89.80;100959.75;1720240;83;21191;-79
2021/01/04 04:20:25;;;;;;;14.73;10.10;;;;;;;0.69;89.81;100957.61;1724484;81;21601;-79
2021/01/04 04:22:55;;;;;;;15.70;10.55;;;;;;;0.70;89.85;100954.25;1724153;83;21211;-78
2021/01/04 04:25:25;;;;;;;11.35;8.98;;;;;;;0.71;89.84;100953.43;1717025;81;21126;-79
2021/01/04 04:27:53;;;;;;;18.07;10.38;;;;;;;0.70;89.79;100955.93;1725864;83;21128;-79
2021/01/04 04:30:23;;;;;;;14.78;10.82;;;;;;;0.69;89.80;100951.66;1723918;81;21239;-78
2021/01/04 04:32:59;;;;;;;10.63;9.23;;;;;;;0.69;89.81;100947.84;1726014;83;21148;-79
2021/01/04 04:35:29;;;;;;;13.85;10.72;;;;;;;0.68;89.81;100954.61;1726325;83;28737;-79
2021/01/04 04:37:55;;;;;;;16.48;11.15;;;;;;;0.68;89.73;100943.57;1723802;81;21771;-79
2021/01/04 04:40:32;;;;;;;11.60;9.25;;;;;;;0.67;89.81;100949.06;1723888;82;21198;-79
2021/01/04 04:43:19;;;;;;;13.15;9.70;;;;;;;0.65;89.77;100946.89;1719984;81;21221;-79
2021/01/04 04:45:53;;;;;;;15.10;9.90;;;;;;;0.64;89.78;100950.25;1712414;83;21239;-78
2021/01/04 04:48:46;;;;;;;17.37;10.58;;;;;;;0.61;89.81;100945.93;1724344;82;21251;-79
2021/01/04 04:51:32;;;;;;;17.07;10.35;;;;;;;0.64;89.83;100956.20;1716973;83;21227;-78
2021/01/04 04:54:36;;;;;;;11.67;9.07;;;;;;;0.64;89.85;100956.61;1666346;83;21280;-78
2021/01/04 04:57:33;;;;;;;17.15;10.15;;;;;;;0.63;89.83;100956.16;1720440;81;21399;-79
2021/01/04 05:00:12;;;;;;;12.47;9.55;;;;;;;0.62;89.83;100959.11;1707673;83;21660;-78
2021/01/04 05:03:03;;;;;;;12.95;9.80;;;;;;;0.61;89.82;100961.20;1709139;83;21211;-78
2021/01/04 05:06:00;;;;;;;13.80;9.38;;;;;;;0.59;89.81;100959.02;1705390;81;21215;-78
2021/01/04 05:08:49;;;;;;;12.40;8.80;;;;;;;0.59;89.84;100967.06;1714345;83;21191;-79
2021/01/04 05:11:25;;;;;;;12.70;8.53;;;;;;;0.59;89.88;100967.92;1692251;81;21203;-78
2021/01/04 05:13:59;;;;;;;12.98;9.20;;;;;;;0.59;89.86;100969.20;1725518;81;22501;-79
2021/01/04 05:16:44;;;;;;;15.93;8.58;;;;;;;0.59;89.84;100969.61;1725270;81;21269;-79
2021/01/04 05:19:33;;;;;;;11.57;8.33;;;;;;;0.60;89.88;100967.52;1720894;81;21196;-78
2021/01/04 05:22:11;;;;;;;18.67;10.28;;;;;;;0.60;89.86;100960.75;1682842;82;21643;-79
2021/01/04 05:24:57;;;;;;;12.60;8.35;;;;;;;0.60;89.85;100959.88;1724718;82;22293;-78
2021/01/04 05:28:01;;;;;;;;;;;;;;;0.57;89.85;100963.20;1725244;81;21197;-78
2021/01/04 05:30:50;;;;;;;11.73;8.73;;;;;;;0.58;89.86;100963.66;1714237;82;20286;-79
2021/01/04 05:33:43;;;;;;;15.55;9.33;;;;;;;0.58;89.86;100965.34;1728394;81;21207;-78
2021/01/04 05:36:35;;;;;;;13.68;9.23;;;;;;;0.60;89.90;100971.33;1713042;83;21799;-79
2021/01/04 05:39:42;;;;;;;14.87;10.32;;;;;;;0.58;89.87;100975.10;1726831;81;21952;-77
2021/01/04 05:42:48;;;;;;;13.00;9.03;;;;;;;0.59;89.89;100976.83;1719693;81;21716;-79
2021/01/04 05:45:32;;;;;;;16.32;9.63;;;;;;;0.59;89.86;100979.37;1725829;81;21233;-78
2021/01/04 05:48:52;;;;;;;13.53;9.00;;;;;;;0.59;89.89;100978.10;1705369;81;21150;-78
2021/01/04 05:51:42;;;;;;;10.78;7.80;;;;;;;0.59;89.88;100981.05;1724983;82;21156;-78
2021/01/04 05:54:20;;;;;;;13.40;8.53;;;;;;;0.59;89.90;100981.05;1711016;82;21435;-78
2021/01/04 05:56:41;;;;;;;17.60;10.40;;;;;;;0.58;89.91;100982.73;1718960;82;21228;-79
2021/01/04 05:59:16;;;;;;;12.30;9.60;;;;;;;0.58;89.91;100988.23;1727335;82;21589;-79
2021/01/04 06:01:47;;;;;;;12.93;8.90;;;;;;;0.58;89.91;100981.47;1724471;82;21270;-78
2021/01/04 06:04:35;;;;;;;19.85;11.63;;;;;;;0.58;89.90;100976.37;1719297;82;21220;-79
2021/01/04 06:06:59;;;;;;;15.32;9.03;;;;;;;0.58;89.88;100980.19;1702870;81;21541;-79
2021/01/04 06:09:34;;;;;;;18.92;11.38;;;;;;;0.58;89.90;100973.83;1723784;81;21212;-79
2021/01/04 06:12:19;;;;;;;15.63;11.00;;;;;;;0.57;89.88;100973.78;1718878;81;20947;-79
2021/01/04 06:14:51;;;;;;;16.93;10.20;;;;;;;0.56;89.87;100978.01;1691411;82;21109;-79
2021/01/04 06:17:35;;;;;;;21.00;10.60;;;;;;;0.55;89.89;100977.55;1715402;81;21745;-79
2021/01/04 06:20:38;;;;;;;20.92;11.20;;;;;;;0.55;89.89;100982.64;1722799;81;21635;-79
2021/01/04 06:23:34;;;;;;;25.32;13.28;;;;;;;0.56;89.92;100979.69;1727857;82;21129;-78
2021/01/04 06:26:17;;;;;;;23.80;12.58;;;;;;;0.58;89.94;100981.88;1724928;81;21259;-79
2021/01/04 06:28:48;;;;;;;13.30;9.08;;;;;;;0.57;89.90;100982.69;1728240;81;21156;-78
2021/01/04 06:31:20;;;;;;;26.37;13.22;;;;;;;0.55;89.89;100976.28;1727302;82;21200;-78
2021/01/04 06:33:56;;;;;;;17.35;11.45;;;;;;;0.56;89.92;100984.78;1724941;81;21233;-78
2021/01/04 06:36:24;;;;;;;22.17;12.53;;;;;;;0.55;89.91;100978.83;1720346;81;21792;-79
2021/01/04 06:38:51;;;;;;;24.12;13.10;;;;;;;0.56;89.92;100988.59;1716798;81;21380;-79
2021/01/04 06:41:28;;;;;;;24.05;12.95;;;;;;;0.56;89.96;100983.50;1698786;82;21185;-79
2021/01/04 06:43:54;;;;;;;24.43;13.30;;;;;;;0.57;89.93;100988.64;1735176;81;22308;-78
2021/01/04 06:47:06;;;;;;;22.90;13.25;;;;;;;0.57;89.94;100991.19;1727605;81;21268;-79
2021/01/04 06:49:55;;;;;;;21.30;12.40;;;;;;;0.57;89.94;100989.91;1736502;81;21249;-79
2021/01/04 06:53:07;;;;;;;21.30;12.53;;;;;;;0.58;89.94;100993.32;1707580;81;21660;-79
2021/01/04 06:58:35;;;;;;;24.65;13.13;;;;;;;0.57;89.93;100988.64;1668253;83;21247;-78
2021/01/04 07:01:17;;;;;;;21.62;12.05;;;;;;;0.58;89.96;100996.73;1680115;83;21989;-78
2021/01/04 07:04:25;;;;;;;19.35;11.70;;;;;;;0.60;89.97;101000.59;1645556;86;21280;-79
2021/01/04 07:07:16;;;;;;;26.60;13.13;;;;;;;0.59;89.94;100997.59;1641765;85;21305;-80
2021/01/04 07:09:57;;;;;;;23.27;12.98;;;;;;;0.57;89.93;100991.59;1650426;85;21284;-78
2021/01/04 07:12:47;;;;;;;23.07;13.75;;;;;;;0.56;89.96;100992.41;1650290;85;21299;-78
2021/01/04 07:15:29;;;;;;;24.87;15.50;;;;;;;0.57;89.97;100991.19;1648330;85;21431;-77
2021/01/04 07:18:27;;;;;;;24.98;14.53;;;;;;;0.58;89.97;100996.73;1635872;87;21272;-78
2021/01/04 07:21:14;;;;;;;27.20;15.53;;;;;;;0.59;89.97;100996.32;1650368;85;21268;-79
2021/01/04 07:24:19;;;;;;;25.43;15.70;;;;;;;0.59;89.96;100991.23;1646738;85;21264;-78
2021/01/04 07:27:13;;;;;;;28.92;15.85;;;;;;;0.57;89.96;100993.73;1650903;85;21253;-78
2021/01/04 07:30:10;;;;;;;33.95;17.85;;;;;;;0.57;89.96;100998.82;1651142;86;21244;-78
2021/01/04 07:33:10;;;;;;;23.15;12.75;;;;;;;0.57;89.99;101001.36;1639754;86;21246;-79
2021/01/04 07:35:41;;;;;;;27.17;14.15;;;;;;;0.57;89.97;101001.36;1652050;86;21282;-78
2021/01/04 07:38:52;;;;;;;26.80;13.90;;;;;;;0.57;89.98;101003.91;1689317;84;21120;-78
2021/01/04 07:41:22;;;;;;;26.60;14.47;;;;;;;0.57;89.97;101005.18;1688916;83;21245;-79
2021/01/04 07:44:22;;;;;;;26.20;15.63;;;;;;;0.55;89.99;101001.72;1691672;83;21244;-77
2021/01/04 07:46:59;;;;;;;25.05;15.58;;;;;;;0.56;89.97;101006.41;1686798;83;21523;-78
2021/01/04 07:50:16;;;;;;;32.30;16.82;;;;;;;0.55;89.97;101014.86;1680932;83;21150;-78
2021/01/04 07:53:36;;;;;;;29.10;16.05;;;;;;;0.55;89.99;101027.17;1692104;83;21130;-79
2021/01/04 07:56:19;;;;;;;33.05;17.77;;;;;;;0.55;89.99;101050.47;1671474;84;21127;-78
2021/01/04 07:59:10;;;;;;;27.13;14.65;;;;;;;0.59;90.04;101048.48;1663459;84;21240;-78
2021/01/04 08:02:30;;;;;;;28.32;16.12;;;;;;;0.58;90.01;101046.34;1660721;84;21202;-78
2021/01/04 08:05:18;;;;;;;34.75;16.55;;;;;;;0.61;90.02;101045.17;1672148;84;21733;-79
2021/01/04 08:07:55;;;;;;;27.22;14.73;;;;;;;0.64;90.05;101046.54;1674240;84;21225;-79
2021/01/04 08:10:49;;;;;;;28.45;15.32;;;;;;;0.66;90.04;101044.91;1668920;84;21205;-78
2021/01/04 08:14:06;;;;;;;34.92;18.25;;;;;;;0.65;90.00;101044.45;1673456;84;21253;-78
2021/01/04 08:16:55;;;;;;;36.05;19.00;;;;;;;0.65;89.99;101048.27;1675538;84;21217;-79
2021/01/04 08:19:23;;;;;;;31.10;17.45;;;;;;;0.68;90.01;101055.13;1648124;84;22380;-78
2021/01/04 08:22:00;;;;;;;31.77;18.45;;;;;;;0.69;89.99;101056.00;1674773;84;21251;-78
2021/01/04 08:24:41;;;;;;;34.27;18.20;;;;;;;0.70;89.97;101062.81;1675054;84;22533;-78
2021/01/04 08:27:46;;;;;;;38.30;16.93;;;;;;;0.71;90.00;101060.72;1658103;84;21266;-78
2021/01/04 08:30:33;;;;;;;36.00;17.90;;;;;;;0.72;90.02;101061.18;1674069;84;21229;-78
2021/01/04 08:33:30;;;;;;;25.45;15.72;;;;;;;0.73;90.00;101063.77;1676127;84;21210;-79
2021/01/04 08:35:57;;;;;;;36.85;18.90;;;;;;;0.73;89.96;101069.27;1673119;84;21199;-77
2021/01/04 08:38:39;;;;;;;32.90;16.87;;;;;;;0.72;89.96;101067.55;1675229;84;21190;-78
2021/01/04 08:41:19;;;;;;;27.77;16.30;;;;;;;0.72;89.97;101073.50;1678196;84;21426;-78
2021/01/04 08:43:49;;;;;;;31.17;16.52;;;;;;;0.72;89.96;101070.09;1672781;84;21229;-79
2021/01/04 08:46:30;;;;;;;28.65;16.67;;;;;;;0.73;89.99;101061.64;1658717;84;21221;-78
2021/01/04 08:49:23;;;;;;;32.15;17.52;;;;;;;0.72;89.96;101059.50;1645072;84;21334;-78
2021/01/04 08:51:58;;;;;;;35.65;18.35;;;;;;;0.73;89.97;101064.19;1646151;84;21217;-78
2021/01/04 08:54:32;;;;;;;31.93;18.37;;;;;;;0.74;89.98;101068.05;1663109;84;21236;-79
2021/01/04 08:57:19;;;;;;;30.43;17.82;;;;;;;0.76;90.00;101068.95;1665457;84;21683;-78
2021/01/04 09:00:03;;;;;;;29.18;17.98;;;;;;;0.79;90.01;101074.14;1662400;84;21209;-78
2021/01/04 09:02:39;;;;;;;35.43;19.23;;;;;;;0.82;90.03;101075.92;1655512;84;21217;-77
2021/01/04 09:05:13;;;;;;;;;;;;;;;0.85;90.01;101081.11;1671077;84;21255;-78
2021/01/04 09:07:58;;;;;;;35.35;18.00;;;;;;;0.86;89.96;101079.02;1666963;84;21404;-78
2021/01/04 09:10:38;;;;;;;30.30;17.45;;;;;;;0.86;89.97;101077.74;1661640;84;21266;-78
2021/01/04 09:13:26;;;;;;;29.35;18.32;;;;;;;0.86;89.96;101077.74;1670594;84;21232;-79
2021/01/04 09:15:56;;;;;;;37.25;19.95;;;;;;;0.86;89.98;101076.06;1654200;84;21246;-77
2021/01/04 09:18:37;;;;;;;29.35;16.97;;;;;;;0.89;89.96;101081.25;1653931;84;21258;-78
2021/01/04 09:21:34;;;;;;;29.67;18.07;;;;;;;0.89;89.94;101076.56;1650047;84;21545;-80
2021/01/04 09:24:28;;;;;;;29.85;18.82;;;;;;;0.92;89.98;101069.02;1664116;84;22049;-78
2021/01/04 09:27:05;;;;;;;27.98;17.52;;;;;;;0.94;90.01;101058.48;1659726;84;21216;-78
2021/01/04 09:29:44;;;;;;;32.45;19.98;;;;;;;0.95;90.00;101061.06;1640814;84;21506;-80
2021/01/04 09:32:15;;;;;;;29.65;17.57;;;;;;;0.99;89.96;101058.20;1665359;84;21197;-78
2021/01/04 09:34:41;;;;;;;28.67;17.02;;;;;;;1.01;89.96;101066.75;1668332;84;21227;-78
2021/01/04 09:37:22;;;;;;;;;;;;;;;;;;;;;
2021/01/04 09:39:48;;;;;;;27.60;18.05;;;;;;;1.04;89.99;101059.61;1664580;84;22064;-77
2021/01/04 09:42:35;;;;;;;31.17;18.70;;;;;;;1.06;89.96;101064.31;1656417;84;21229;-79
2021/01/04 09:45:24;;;;;;;29.40;17.92;;;;;;;1.07;89.94;101052.03;1652586;84;21632;-78
2021/01/04 09:48:01;;;;;;;31.10;18.45;;;;;;;1.06;89.93;101049.89;1657607;84;23120;-79
2021/01/04 09:50:39;;;;;;;25.30;16.40;;;;;;;1.06;89.90;101056.27;1671401;84;21457;-78
2021/01/04 09:53:31;;;;;;;33.00;19.50;;;;;;;1.05;89.90;101054.94;1672836;84;21141;-77
2021/01/04 09:56:31;;;;;;;27.00;15.98;;;;;;;1.06;89.92;101060.08;1675941;84;21230;-78
2021/01/04 09:59:31;;;;;;;26.55;16.42;;;;;;;1.08;89.95;101066.49;1671221;84;21439;-79
2021/01/04 10:02:02;;;;;;;30.00;18.27;;;;;;;1.10;89.96;101068.67;1671862;84;21221;-78
2021/01/04 10:04:33;;;;;;;28.70;17.07;;;;;;;1.12;89.97;101058.13;1678679;84;21571;-78
2021/01/04 10:07:07;;;;;;;26.77;17.40;;;;;;;1.14;89.97;101067.95;1674189;84;21227;-78
2021/01/04 10:09:44;;;;;;;22.17;15.80;;;;;;;1.13;89.90;101059.44;1671477;84;21235;-78
2021/01/04 10:12:30;;;;;;;;;;;;;;;;;;;;;
2021/01/04 10:14:54;;;;;;;22.30;15.40;;;;;;;1.15;89.94;101074.77;1670037;84;21959;-79
2021/01/04 10:17:44;;;;;;;23.85;15.30;;;;;;;1.17;89.93;101070.17;1660962;84;21226;-77
2021/01/04 10:20:27;;;;;;;18.35;12.40;;;;;;;1.17;89.91;101072.72;1684432;84;21201;-79
2021/01/04 10:23:03;;;;;;;17.85;14.03;;;;;;;1.16;89.90;101063.35;1670018;84;21210;-79
2021/01/04 10:25:43;;;;;;;19.20;14.35;;;;;;;1.15;89.90;101057.80;1663117;84;21197;-78
2021/01/04 10:38:17;;;;;;;23.50;14.95;;;;;;;1.20;89.89;101054.98;1667651;84;21692;-77
2021/01/04 10:40:49;;;;;;;22.17;14.45;;;;;;;1.20;89.90;101062.62;1674129;84;21249;-77
2021/01/04 10:43:22;;;;;;;23.02;13.78;;;;;;;1.20;89.91;101056.26;1679532;84;21667;-77
2021/01/04 10:45:52;;;;;;;26.87;16.15;;;;;;;1.21;89.96;101060.53;1661794;84;38895;-77
2021/01/04 10:48:26;;;;;;;26.50;16.05;;;;;;;1.23;89.97;101060.16;1688017;83;21196;-78
2021/01/04 10:50:57;;;;;;;20.92;14.15;;;;;;;1.24;89.91;101063.58;1686210;84;21251;-77
2021/01/04 10:53:41;;;;;;;26.33;15.45;;;;;;;1.24;89.89;101068.27;1688770;83;21262;-77
2021/01/04 10:56:22;;;;;;;23.25;15.25;;;;;;;1.22;89.87;101066.08;1683604;84;21214;-77
2021/01/04 10:59:13;;;;;;;26.33;16.17;;;;;;;1.22;89.90;101064.80;1687290;84;21220;-77
2021/01/04 11:01:43;;;;;;;20.00;14.38;;;;;;;1.23;89.91;101065.27;1634398;84;21248;-77
2021/01/04 11:04:17;;;;;;;25.43;15.50;;;;;;;1.24;89.89;101065.72;1627110;83;104965;-77
2021/01/04 11:06:47;;;;;;;22.32;15.75;;;;;;;1.21;89.88;101061.80;1659700;85;21209;-78
2021/01/04 11:09:27;;;;;;;19.77;13.93;;;;;;;1.23;89.92;101065.27;1663462;85;21872;-77
2021/01/04 11:12:26;;;;;;;24.25;15.70;;;;;;;1.24;89.91;101070.81;1645019;85;21226;-77
2021/01/04 11:15:00;;;;;;;21.25;13.60;;;;;;;1.24;89.88;101069.53;1650583;85;22310;-76
2021/01/04 11:17:35;;;;;;;19.30;13.55;;;;;;;1.25;89.92;101063.63;1660208;85;21155;-76
2021/01/04 11:20:09;;;;;;;21.37;14.70;;;;;;;1.26;89.92;101052.61;1657349;85;21172;-76
2021/01/04 11:22:35;;;;;;;20.97;14.45;;;;;;;1.25;89.90;101057.25;1659692;85;21275;-76
2021/01/04 11:25:02;;;;;;;22.70;13.93;;;;;;;1.25;89.91;101067.44;1659027;85;21210;-76
2021/01/04 11:27:28;;;;;;;18.75;13.68;;;;;;;1.26;89.89;101065.34;1651804;85;21241;-76
2021/01/04 11:29:54;;;;;;;19.25;12.98;;;;;;;1.27;89.91;101066.21;1664446;85;21632;-76
2021/01/04 11:32:22;;;;;;;17.05;11.05;;;;;;;1.27;89.93;101063.26;1638375;85;21634;-77
2021/01/04 11:34:55;;;;;;;21.33;14.15;;;;;;;1.28;89.90;101061.57;1634311;85;21380;-76
2021/01/04 11:37:24;;;;;;;19.30;13.88;;;;;;;1.28;89.93;101057.34;1661439;85;21245;-77
2021/01/04 11:39:52;;;;;;;21.52;14.20;;;;;;;1.29;89.93;101057.80;1656566;85;21201;-76
2021/01/04 11:42:19;;;;;;;19.55;12.55;;;;;;;1.29;89.88;101056.52;1659506;85;21270;-77
2021/01/04 11:44:46;;;;;;;18.23;13.20;;;;;;;1.30;89.90;101045.52;1637422;86;21706;-77
2021/01/04 11:47:12;;;;;;;20.50;13.40;;;;;;;1.29;89.87;101038.69;1657936;85;21257;-76
2021/01/04 11:49:38;;;;;;;21.48;14.35;;;;;;;1.27;89.86;101030.14;1657895;85;24013;-76
2021/01/04 11:52:05;;;;;;;15.80;12.05;;;;;;;1.28;89.93;101035.69;1618297;85;46810;-77
2021/01/04 11:54:31;;;;;;;20.45;12.78;;;;;;;1.29;89.93;101029.77;1614883;87;21609;-78
2021/01/04 11:56:59;;;;;;;23.15;14.28;;;;;;;1.29;89.89;101031.45;1615207;88;25327;-76
2021/01/04 11:59:25;;;;;;;15.25;11.50;;;;;;;1.27;89.89;101018.68;1612012;88;22049;-76
2021/01/04 12:01:53;;;;;;;28.47;20.85;;;;;;;1.30;89.93;101023.86;1611858;87;21158;-77
2021/01/04 12:04:20;;;;;;;25.12;16.65;;;;;;;1.31;89.91;101023.04;1607093;87;21591;-76
2021/01/04 12:06:49;;;;;;;32.67;19.65;;;;;;;1.31;89.94;101006.48;1596690;87;21186;-76
2021/01/04 12:09:17;;;;;;;37.73;22.20;;;;;;;1.34;89.95;101009.52;1615475;87;21144;-76
2021/01/04 12:11:46;;;;;;;27.87;15.75;;;;;;;1.32;89.89;101012.44;1609400;88;21248;-76
2021/01/04 12:14:13;;;;;;;29.23;16.25;;;;;;;1.30;89.89;101016.22;1615051;88;21293;-76
2021/01/04 12:16:42;;;;;;;28.65;17.27;;;;;;;1.30;89.87;101023.86;1603659;87;21206;-76
2021/01/04 12:19:09;;;;;;;28.47;16.82;;;;;;;1.29;89.87;101018.31;1614102;88;21199;-77
2021/01/04 12:21:35;;;;;;;29.80;15.70;;;;;;;1.28;89.86;101025.91;1611138;87;21237;-78
2021/01/04 12:24:02;;;;;;;28.50;16.42;;;;;;;1.29;89.87;101028.50;1609149;87;21281;-77
2021/01/04 12:26:31;;;;;;;27.02;15.35;;;;;;;1.27;89.87;101026.73;1615598;87;21792;-77
2021/01/04 12:28:58;;;;;;;30.43;16.67;;;;;;;1.27;89.88;101026.32;1609835;88;21147;-78
2021/01/04 12:31:25;;;;;;;40.08;20.45;;;;;;;1.27;89.91;101027.59;1618534;87;21143;-77
2021/01/04 12:33:51;;;;;;;36.17;18.25;;;;;;;1.25;89.89;101025.41;1631482;87;21150;-77
2021/01/04 12:36:22;;;;;;;29.23;16.70;;;;;;;1.26;89.91;101018.22;1614380;87;21251;-77
2021/01/04 12:38:52;;;;;;;34.58;17.98;;;;;;;1.25;89.89;101012.67;1601927;87;21286;-77
2021/01/04 12:41:19;;;;;;;29.98;17.10;;;;;;;1.24;89.91;101017.73;1603943;88;21778;-76